Cuffley, United Kingdom
Current Conditions -  °F | °C
As of 3:20 PM on Friday 31 Oct 2014 (Local Time) from EGGW Reporting Station
Clear Clear  
Wind Chill: 68°   Ceiling: Unl
Heat Index: 68°   Visibility: 6mi
Dew Point: 55°   Wind: 12mph
Humidity: 64%   Direction: 150°SSE
Pressure: 29.97"   Gusts: NA
Location:  51.71°N, 0.11°W
Report Text: EGGW 311520Z 15010KT CAVOK 20/13 Q1015
Loading
Personal Weather Stations






























Interactive Weather Map New forecast layout! Learn more

10-Day Weather Forecast

Advertisements
Track Severe Weather on mobile